Avalon, Pennsylvania
Current Conditions -  °F | °C
As of 5:51 PM on Saturday 20 Dec 2014 (Local Time) from KPIT Reporting Station
Broken Clouds Broken Clouds  
Wind Chill: 23°   Ceiling: 2800
Heat Index: 29°   Visibility: 10mi
Dew Point: 20°   Wind: 6mph
Humidity: 69%   Direction: 360°N
Pressure: 30.24"   Gusts: NA
Location:  40.5069°N, 80.0715°W
Report Text: KPIT 202251Z 36005KT 10SM BKN028 BKN110 M02/M07 A3024 RMK AO2 SLP262 T10171067
Loading
Personal Weather Stations






























Interactive Weather Map New forecast layout! Learn more

10-Day Weather Forecast

Advertisements
Track Severe Weather on mobile